createdAt,value
2023-02-23T00:04:21.222Z,41.95
2023-02-23T00:06:47.885Z,55.97
2023-02-23T00:09:35.913Z,57.15
2023-02-23T00:12:07.863Z,56.47
2023-02-23T00:14:37.767Z,53.85
2023-02-23T00:17:05.045Z,54.20
2023-02-23T00:19:33.603Z,56.30
2023-02-23T00:22:01.170Z,57.72
2023-02-23T00:24:28.051Z,64.20
2023-02-23T00:26:54.679Z,70.53
2023-02-23T00:29:22.942Z,68.70
2023-02-23T00:31:50.908Z,77.00
2023-02-23T00:34:23.548Z,75.82
2023-02-23T00:36:52.182Z,79.65
2023-02-23T00:41:49.893Z,56.13
2023-02-23T00:44:17.064Z,51.03
2023-02-23T00:46:45.336Z,48.00
2023-02-23T00:49:13.579Z,51.50
2023-02-23T00:51:40.273Z,49.88
2023-02-23T00:54:07.440Z,52.75
2023-02-23T00:56:34.332Z,51.10
2023-02-23T00:59:01.344Z,45.10
2023-02-23T01:01:28.397Z,48.42
2023-02-23T01:03:55.047Z,51.53
2023-02-23T01:06:22.220Z,63.38
2023-02-23T01:08:50.359Z,56.38
2023-02-23T01:11:23.006Z,48.53
2023-02-23T01:13:52.275Z,55.05
2023-02-23T01:16:21.026Z,56.70
2023-02-23T01:18:48.976Z,50.30
2023-02-23T01:21:20.082Z,50.95
2023-02-23T01:23:47.438Z,41.55
2023-02-23T01:26:25.659Z,46.72
2023-02-23T01:28:57.626Z,50.40
2023-02-23T01:31:25.252Z,56.25
2023-02-23T01:33:56.336Z,61.83
2023-02-23T01:36:23.373Z,51.88
2023-02-23T01:38:50.127Z,48.20
2023-02-23T01:41:17.592Z,45.17
2023-02-23T01:44:05.224Z,52.90
2023-02-23T01:46:37.013Z,38.57
2023-02-23T01:49:04.010Z,43.03
2023-02-23T01:51:34.108Z,54.75
2023-02-23T01:54:03.117Z,41.47
2023-02-23T01:56:35.154Z,38.75
2023-02-23T01:59:05.280Z,48.28
2023-02-23T02:01:32.075Z,57.17
2023-02-23T02:04:02.049Z,56.28
2023-02-23T02:06:29.205Z,48.70
2023-02-23T02:08:58.377Z,44.88
2023-02-23T02:11:36.288Z,49.72
2023-02-23T02:14:15.807Z,66.15
2023-02-23T02:17:02.383Z,71.68
2023-02-23T02:19:48.752Z,73.13
2023-02-23T02:22:49.408Z,58.90
2023-02-23T02:25:54.327Z,60.30
2023-02-23T02:29:02.549Z,65.40
2023-02-23T02:31:46.069Z,59.60
2023-02-23T02:34:32.642Z,52.20
2023-02-23T02:37:11.432Z,62.13
2023-02-23T02:40:16.230Z,53.45
2023-02-23T02:42:57.076Z,55.65
2023-02-23T02:45:32.352Z,50.30
2023-02-23T02:48:07.774Z,60.85
2023-02-23T02:50:56.584Z,55.58
2023-02-23T02:53:29.547Z,56.22
2023-02-23T02:56:00.385Z,48.00
2023-02-23T02:58:27.560Z,57.15
2023-02-23T03:01:12.863Z,53.47
2023-02-23T03:04:01.541Z,61.80
2023-02-23T03:06:55.798Z,49.45
2023-02-23T03:10:00.550Z,52.13
2023-02-23T03:13:19.840Z,53.78
2023-02-23T03:16:22.733Z,55.20
2023-02-23T03:19:19.000Z,55.53
2023-02-23T03:22:14.525Z,51.08
2023-02-23T03:25:03.669Z,51.83
2023-02-23T03:28:01.726Z,52.90
2023-02-23T03:31:07.224Z,56.70
2023-02-23T03:34:01.423Z,63.53
2023-02-23T03:36:47.741Z,64.80
2023-02-23T03:39:44.534Z,65.68
2023-02-23T03:42:33.204Z,59.40
2023-02-23T03:45:23.391Z,62.97
2023-02-23T03:48:09.133Z,64.38
2023-02-23T03:50:59.481Z,58.90
2023-02-23T03:54:19.551Z,58.47
2023-02-23T03:57:07.665Z,56.17
2023-02-23T03:59:57.830Z,52.80
2023-02-23T04:02:43.853Z,53.63
2023-02-23T04:05:34.644Z,54.13
2023-02-23T04:08:22.291Z,65.43
2023-02-23T04:11:18.128Z,67.93
2023-02-23T04:13:45.565Z,64.43
2023-02-23T04:16:12.212Z,69.75
2023-02-23T04:18:39.804Z,70.63
2023-02-23T04:21:07.147Z,84.30
2023-02-23T04:23:34.605Z,74.10
2023-02-23T04:26:01.234Z,72.57
2023-02-23T04:28:28.336Z,73.05
2023-02-23T04:30:55.037Z,87.40
2023-02-23T04:33:22.370Z,69.40
2023-02-23T04:35:49.208Z,67.97
2023-02-23T04:38:16.017Z,72.80
2023-02-23T04:40:42.873Z,76.88
2023-02-23T04:43:12.380Z,83.72
2023-02-23T04:45:39.262Z,89.60
2023-02-23T04:48:06.267Z,90.70
2023-02-23T04:50:33.007Z,94.50
2023-02-23T04:52:59.890Z,86.13
2023-02-23T04:55:26.805Z,76.18
2023-02-23T04:57:59.108Z,67.68
2023-02-23T05:00:26.408Z,65.28
2023-02-23T05:02:53.046Z,58.88
2023-02-23T05:05:19.645Z,58.10
2023-02-23T05:07:46.323Z,69.78
2023-02-23T05:10:12.898Z,84.90
2023-02-23T05:12:39.502Z,81.60
2023-02-23T05:15:06.785Z,75.45
2023-02-23T05:17:33.381Z,73.25
2023-02-23T05:19:59.925Z,76.03
2023-02-23T05:22:26.480Z,79.15
2023-02-23T05:24:53.511Z,75.05
2023-02-23T05:27:20.884Z,73.63
2023-02-23T05:29:47.502Z,69.13
2023-02-23T05:32:14.236Z,70.35
2023-02-23T05:34:41.134Z,78.72
2023-02-23T05:37:07.753Z,83.13
2023-02-23T05:39:34.306Z,90.47
2023-02-23T05:42:00.902Z,99.45
2023-02-23T05:44:27.662Z,112.47
2023-02-23T05:46:54.352Z,108.30
2023-02-23T05:49:20.965Z,108.15
2023-02-23T05:51:47.574Z,127.75
2023-02-23T05:54:14.286Z,107.47
2023-02-23T05:56:42.085Z,93.57
2023-02-23T05:59:08.670Z,117.05
2023-02-23T06:01:35.866Z,103.25
2023-02-23T06:04:03.527Z,120.53
2023-02-23T06:06:31.205Z,112.13
2023-02-23T06:08:57.759Z,98.13
2023-02-23T06:11:24.363Z,88.28
2023-02-23T06:13:50.949Z,76.07
2023-02-23T06:16:17.698Z,78.43
2023-02-23T06:18:44.357Z,72.35
2023-02-23T06:21:10.929Z,67.00
2023-02-23T06:23:38.139Z,83.57
2023-02-23T06:26:04.949Z,64.88
2023-02-23T06:28:31.557Z,81.55
2023-02-23T06:30:58.259Z,81.28
2023-02-23T06:33:25.559Z,66.95
2023-02-23T06:35:52.918Z,68.55
2023-02-23T06:38:20.508Z,68.68
2023-02-23T06:40:47.127Z,66.13
2023-02-23T06:43:13.733Z,71.45
2023-02-23T06:45:40.977Z,74.60
2023-02-23T06:48:07.941Z,76.55
2023-02-23T06:50:34.589Z,73.20
2023-02-23T06:53:01.144Z,81.95
2023-02-23T06:55:27.728Z,89.68
2023-02-23T06:57:54.460Z,85.68
2023-02-23T07:00:21.974Z,93.10
2023-02-23T07:02:49.159Z,85.40
2023-02-23T07:05:16.330Z,74.00
2023-02-23T07:07:43.333Z,86.32
2023-02-23T07:10:10.725Z,76.35
2023-02-23T07:12:37.299Z,86.82
2023-02-23T07:15:04.463Z,89.25
2023-02-23T07:17:31.120Z,89.00
2023-02-23T07:19:58.005Z,91.60
2023-02-23T07:22:27.456Z,103.90
2023-02-23T07:24:54.002Z,100.22
2023-02-23T07:27:20.836Z,106.60
2023-02-23T07:29:47.682Z,109.75
2023-02-23T07:32:14.530Z,96.00
2023-02-23T07:34:41.122Z,105.13
2023-02-23T07:37:07.697Z,97.18
2023-02-23T07:39:34.307Z,121.95
2023-02-23T07:42:00.941Z,109.78
2023-02-23T07:44:27.578Z,105.30
2023-02-23T07:46:54.218Z,100.78
2023-02-23T07:49:20.808Z,104.13
2023-02-23T07:51:47.437Z,98.65
2023-02-23T07:54:15.042Z,116.38
2023-02-23T07:56:41.813Z,107.63
2023-02-23T07:59:08.396Z,99.20
2023-02-23T08:01:36.117Z,98.30
2023-02-23T08:04:03.175Z,107.22
2023-02-23T08:06:30.406Z,94.18
2023-02-23T08:09:00.232Z,86.07
2023-02-23T08:11:29.119Z,96.22
2023-02-23T08:14:00.368Z,93.22
2023-02-23T08:16:31.485Z,86.05
2023-02-23T08:18:58.876Z,87.55
2023-02-23T08:21:29.550Z,89.85
2023-02-23T08:23:57.771Z,94.75
2023-02-23T08:26:25.525Z,101.68
2023-02-23T08:28:53.399Z,101.47
2023-02-23T08:31:24.081Z,108.93
2023-02-23T08:33:51.751Z,106.63
2023-02-23T08:36:19.029Z,116.65
2023-02-23T08:38:45.617Z,118.22
2023-02-23T08:41:12.449Z,124.47
2023-02-23T08:43:39.359Z,126.32
2023-02-23T08:46:07.144Z,113.80
2023-02-23T08:48:34.183Z,121.95
2023-02-23T08:51:01.142Z,124.95
2023-02-23T08:53:29.729Z,117.30
2023-02-23T08:58:23.973Z,108.83
2023-02-23T09:00:50.877Z,103.20
2023-02-23T09:03:17.626Z,108.82
2023-02-23T09:05:44.319Z,107.85
2023-02-23T09:08:12.422Z,117.53
2023-02-23T09:10:39.600Z,106.18
2023-02-23T09:13:06.345Z,120.25
2023-02-23T09:15:33.037Z,121.45
2023-02-23T09:18:01.632Z,118.97
2023-02-23T09:22:55.084Z,122.25
2023-02-23T09:25:25.137Z,117.30
2023-02-23T09:27:53.576Z,125.38
2023-02-23T09:30:21.434Z,139.52
2023-02-23T09:32:48.799Z,120.30
2023-02-23T09:35:19.162Z,111.22
2023-02-23T09:37:48.525Z,131.00
2023-02-23T09:40:21.929Z,102.45
2023-02-23T09:43:23.205Z,97.45
2023-02-23T09:45:55.703Z,99.82
2023-02-23T09:48:24.697Z,109.68
2023-02-23T09:50:56.454Z,116.15
2023-02-23T09:53:34.101Z,99.13
2023-02-23T09:56:02.645Z,109.18
2023-02-23T09:58:33.990Z,103.40
2023-02-23T10:01:19.548Z,112.80
2023-02-23T10:04:02.187Z,92.18
2023-02-23T10:06:29.307Z,115.95
2023-02-23T10:09:04.857Z,115.57
2023-02-23T10:11:43.598Z,110.18
2023-02-23T10:14:45.078Z,105.70
2023-02-23T10:17:24.708Z,112.80
2023-02-23T10:19:55.366Z,107.85
2023-02-23T10:22:22.326Z,109.97
2023-02-23T10:25:17.207Z,118.63
2023-02-23T10:27:48.470Z,113.78
2023-02-23T10:30:36.035Z,114.32
2023-02-23T10:33:10.860Z,106.28
2023-02-23T10:35:38.394Z,120.70
2023-02-23T10:38:05.439Z,108.47
2023-02-23T10:40:33.737Z,121.07
2023-02-23T10:43:01.489Z,102.57
2023-02-23T10:45:29.788Z,106.45
2023-02-23T10:48:06.545Z,105.95
2023-02-23T10:50:33.724Z,111.07
2023-02-23T10:53:06.864Z,108.18
2023-02-23T10:55:34.224Z,112.22
2023-02-23T10:58:10.836Z,104.47
2023-02-23T11:00:40.791Z,97.82
2023-02-23T11:03:22.579Z,98.03
2023-02-23T11:05:53.809Z,107.90
2023-02-23T11:08:22.438Z,105.03
2023-02-23T11:11:05.241Z,108.78
2023-02-23T11:13:38.255Z,110.30
2023-02-23T11:16:06.371Z,107.20
2023-02-23T11:18:33.171Z,108.93
2023-02-23T11:20:59.794Z,98.03
2023-02-23T11:23:36.127Z,93.07
2023-02-23T11:26:06.673Z,88.25
2023-02-23T11:28:37.150Z,84.72
2023-02-23T11:31:15.304Z,91.40
2023-02-23T11:33:42.324Z,92.25
2023-02-23T11:36:14.763Z,83.45
2023-02-23T11:38:41.384Z,77.90
2023-02-23T11:41:20.332Z,85.43
2023-02-23T11:43:58.172Z,78.57
2023-02-23T11:46:25.953Z,79.50
2023-02-23T11:49:01.336Z,69.65
2023-02-23T11:51:33.930Z,90.18
2023-02-23T11:54:01.403Z,74.82
2023-02-23T11:56:29.657Z,76.55
2023-02-23T11:59:00.398Z,77.20
2023-02-23T12:01:44.674Z,78.55
2023-02-23T12:04:29.349Z,74.22
2023-02-23T12:07:24.002Z,80.38
2023-02-23T12:09:59.419Z,88.82
2023-02-23T12:12:28.582Z,73.72
2023-02-23T12:15:16.252Z,71.00
2023-02-23T12:17:49.120Z,71.57
2023-02-23T12:20:24.339Z,80.88
2023-02-23T12:23:10.652Z,75.78
2023-02-23T12:25:48.210Z,71.18
2023-02-23T12:28:20.912Z,66.13
2023-02-23T12:31:03.056Z,70.47
2023-02-23T12:33:42.103Z,59.15
2023-02-23T12:36:35.550Z,63.80
2023-02-23T12:39:18.448Z,59.55
2023-02-23T12:42:06.594Z,55.67
2023-02-23T12:44:42.734Z,55.33
2023-02-23T12:47:34.293Z,53.92
2023-02-23T12:50:33.838Z,49.60
2023-02-23T12:53:18.714Z,51.33
2023-02-23T12:58:54.633Z,52.55
2023-02-23T13:01:48.409Z,45.78
2023-02-23T13:04:51.063Z,43.58
2023-02-23T13:07:23.188Z,43.10
2023-02-23T13:10:16.096Z,51.20
2023-02-23T13:13:11.391Z,43.35
2023-02-23T13:15:40.801Z,55.50
2023-02-23T13:18:20.339Z,51.95
2023-02-23T13:20:47.954Z,51.47
2023-02-23T13:23:37.733Z,46.30
2023-02-23T13:26:17.608Z,30.38
2023-02-23T13:29:02.630Z,36.08
2023-02-23T13:31:40.368Z,42.88
2023-02-23T13:34:11.891Z,41.90
2023-02-23T13:36:40.697Z,39.38
2023-02-23T13:39:28.590Z,39.17
2023-02-23T13:42:01.252Z,37.53
2023-02-23T13:45:06.756Z,37.42
2023-02-23T13:47:36.707Z,37.67
2023-02-23T13:50:37.901Z,38.92
2023-02-23T13:53:07.273Z,38.13
2023-02-23T13:55:48.148Z,39.33
2023-02-23T13:58:19.364Z,42.22
2023-02-23T14:00:54.320Z,41.55
2023-02-23T14:03:27.278Z,36.70
2023-02-23T14:05:57.420Z,37.15
2023-02-23T14:08:32.969Z,38.70
2023-02-23T14:10:59.613Z,34.63
2023-02-23T14:13:30.440Z,39.85
2023-02-23T14:16:18.731Z,42.38
2023-02-23T14:21:31.316Z,40.95
2023-02-23T14:24:27.369Z,38.17
2023-02-23T14:27:38.627Z,42.08
2023-02-23T14:30:13.038Z,41.53
2023-02-23T14:32:46.559Z,48.10
2023-02-23T14:35:48.209Z,36.65
2023-02-23T14:38:47.526Z,46.40
2023-02-23T14:41:15.029Z,49.60
2023-02-23T14:43:43.351Z,50.55
2023-02-23T14:48:58.620Z,43.83
2023-02-23T14:51:32.361Z,50.30
2023-02-23T14:54:00.031Z,46.40
2023-02-23T14:56:38.715Z,43.03
2023-02-23T14:59:21.139Z,46.00
2023-02-23T15:01:47.902Z,50.67
2023-02-23T15:04:24.189Z,44.22
2023-02-23T15:06:54.847Z,54.83
2023-02-23T15:09:32.110Z,50.13
2023-02-23T15:12:00.464Z,50.42
2023-02-23T15:14:28.541Z,40.95
2023-02-23T15:16:56.323Z,44.28
2023-02-23T15:19:24.916Z,39.77
2023-02-23T15:24:27.972Z,49.42
2023-02-23T15:26:56.135Z,52.33
2023-02-23T15:29:31.750Z,41.67
2023-02-23T15:32:15.105Z,42.95
2023-02-23T15:34:41.854Z,47.95
2023-02-23T15:37:24.471Z,51.95
2023-02-23T15:39:57.010Z,43.63
2023-02-23T15:42:45.338Z,38.30
2023-02-23T15:47:42.353Z,42.08
2023-02-23T15:50:24.680Z,37.47
2023-02-23T15:53:01.396Z,48.58
2023-02-23T15:55:35.400Z,42.50
2023-02-23T15:58:15.816Z,53.53
2023-02-23T16:00:44.028Z,46.95
2023-02-23T16:03:44.400Z,44.47
2023-02-23T16:06:35.556Z,51.08
2023-02-23T16:09:06.058Z,44.90
2023-02-23T16:11:36.031Z,53.03
2023-02-23T16:14:05.559Z,46.30
2023-02-23T16:16:34.733Z,42.40
2023-02-23T16:19:01.791Z,42.85
2023-02-23T16:21:32.326Z,62.30
2023-02-23T16:24:01.850Z,49.47
2023-02-23T16:26:34.456Z,47.10
2023-02-23T16:29:02.246Z,43.80
2023-02-23T16:31:44.653Z,61.42
2023-02-23T16:34:19.626Z,52.95
2023-02-23T16:36:49.815Z,57.85
2023-02-23T16:39:17.543Z,50.10
2023-02-23T16:41:47.531Z,51.92
2023-02-23T16:44:21.696Z,57.22
2023-02-23T16:46:54.082Z,52.05
2023-02-23T16:49:23.329Z,48.65
2023-02-23T16:51:50.954Z,54.90
2023-02-23T16:54:17.618Z,55.43
2023-02-23T16:56:46.717Z,62.22
2023-02-23T16:59:18.265Z,61.28
2023-02-23T17:01:46.627Z,68.63
2023-02-23T17:04:17.362Z,75.05
2023-02-23T17:06:52.882Z,67.07
2023-02-23T17:09:19.551Z,62.80
2023-02-23T17:11:47.266Z,74.65
2023-02-23T17:14:25.396Z,61.97
2023-02-23T17:16:52.094Z,62.80
2023-02-23T17:19:19.482Z,59.58
2023-02-23T17:21:46.751Z,58.93
2023-02-23T17:24:13.440Z,59.70
2023-02-23T17:26:42.112Z,59.50
2023-02-23T17:29:09.090Z,65.82
2023-02-23T17:31:38.093Z,69.30
2023-02-23T17:34:04.960Z,59.88
2023-02-23T17:36:31.552Z,61.55
2023-02-23T17:38:58.970Z,66.20
2023-02-23T17:41:27.231Z,62.85
2023-02-23T17:43:54.776Z,70.10
2023-02-23T17:46:21.501Z,65.28
2023-02-23T17:48:48.119Z,65.35
2023-02-23T17:51:16.914Z,71.63
2023-02-23T17:53:43.625Z,68.65
2023-02-23T17:56:10.521Z,69.15
2023-02-23T17:58:37.744Z,77.60
2023-02-23T18:01:06.829Z,79.93
2023-02-23T18:03:35.048Z,76.53
2023-02-23T18:06:02.964Z,67.95
2023-02-23T18:08:30.245Z,88.80
2023-02-23T18:10:57.978Z,84.57
2023-02-23T18:13:25.460Z,75.60
2023-02-23T18:15:54.533Z,81.72
2023-02-23T18:18:22.676Z,74.28
2023-02-23T18:20:56.072Z,81.85
2023-02-23T18:23:23.703Z,72.18
2023-02-23T18:25:50.934Z,75.13
2023-02-23T18:28:18.387Z,79.38
2023-02-23T18:30:45.527Z,66.05
2023-02-23T18:33:12.996Z,71.90
2023-02-23T18:35:42.585Z,63.17
2023-02-23T18:38:11.606Z,74.28
2023-02-23T18:40:39.323Z,71.57
2023-02-23T18:43:06.609Z,68.97
2023-02-23T18:45:34.073Z,78.72
2023-02-23T18:48:00.669Z,72.15
2023-02-23T18:50:27.316Z,74.13
2023-02-23T18:52:55.933Z,47.10
2023-02-23T18:55:23.137Z,25.67
2023-02-23T18:57:53.175Z,27.83
2023-02-23T19:00:20.685Z,14.85
2023-02-23T19:02:47.841Z,13.57
2023-02-23T19:05:16.311Z,14.60
2023-02-23T19:10:12.296Z,11.00
2023-02-23T19:12:39.526Z,21.98
2023-02-23T19:15:07.797Z,15.82
2023-02-23T19:17:34.946Z,21.55
2023-02-23T19:20:01.827Z,17.63
2023-02-23T19:22:29.507Z,16.65
2023-02-23T19:24:56.130Z,14.73
2023-02-23T19:27:22.992Z,22.33
2023-02-23T19:29:49.570Z,23.52
2023-02-23T19:32:16.578Z,14.63
2023-02-23T19:34:46.373Z,28.20
2023-02-23T19:37:13.317Z,24.45
2023-02-23T19:39:39.912Z,15.63
2023-02-23T19:42:06.644Z,25.52
2023-02-23T19:44:34.016Z,26.92
2023-02-23T19:47:00.656Z,20.40
2023-02-23T19:49:27.295Z,23.27
2023-02-23T19:51:53.996Z,21.27
2023-02-23T19:54:20.980Z,26.85
2023-02-23T19:56:50.151Z,28.50
2023-02-23T19:59:16.881Z,19.75
2023-02-23T20:01:45.903Z,30.58
2023-02-23T20:04:12.704Z,22.27
2023-02-23T20:06:44.743Z,28.58
2023-02-23T20:09:11.756Z,20.73
2023-02-23T20:11:38.581Z,28.25
2023-02-23T20:14:07.463Z,23.45
2023-02-23T20:16:35.284Z,36.08
2023-02-23T20:19:03.719Z,28.42
2023-02-23T20:23:58.794Z,28.42
2023-02-23T20:26:34.088Z,24.08
2023-02-23T20:29:01.763Z,27.27
2023-02-23T20:31:32.811Z,28.58
2023-02-23T20:34:02.111Z,21.02
2023-02-23T20:36:28.642Z,28.55
2023-02-23T20:38:55.242Z,26.42
2023-02-23T20:41:22.682Z,27.20
2023-02-23T20:43:51.610Z,35.70
2023-02-23T20:46:19.842Z,27.30
2023-02-23T20:48:49.056Z,21.27
2023-02-23T20:51:18.738Z,28.75
2023-02-23T20:53:48.124Z,37.95
2023-02-23T20:56:17.366Z,33.90
2023-02-23T20:58:44.712Z,30.60
2023-02-23T21:01:21.224Z,34.10
2023-02-23T21:03:51.186Z,33.65
2023-02-23T21:06:19.851Z,45.45
2023-02-23T21:08:49.052Z,25.92
2023-02-23T21:11:20.177Z,27.85
2023-02-23T21:13:46.978Z,26.65
2023-02-23T21:16:18.537Z,18.52
2023-02-23T21:18:45.540Z,21.05
2023-02-23T21:21:15.399Z,25.77
2023-02-23T21:23:43.456Z,22.92
2023-02-23T21:26:13.229Z,27.23
2023-02-23T21:28:46.657Z,32.80
2023-02-23T21:31:14.881Z,21.58
2023-02-23T21:33:43.201Z,32.40
2023-02-23T21:36:10.826Z,28.05
2023-02-23T21:38:39.140Z,26.47
2023-02-23T21:41:06.181Z,28.75
2023-02-23T21:43:35.170Z,41.63
2023-02-23T21:46:13.399Z,27.13
2023-02-23T21:48:40.611Z,23.52
2023-02-23T21:51:10.010Z,28.33
2023-02-23T21:53:37.597Z,25.30
2023-02-23T21:56:11.812Z,39.00
2023-02-23T21:58:39.642Z,20.92
2023-02-23T22:01:14.064Z,24.35
2023-02-23T22:03:44.778Z,20.23
2023-02-23T22:06:15.737Z,29.52
2023-02-23T22:08:47.385Z,26.42
2023-02-23T22:11:19.711Z,30.17
2023-02-23T22:13:47.903Z,23.67
2023-02-23T22:16:17.486Z,23.27
2023-02-23T22:18:44.187Z,33.10
2023-02-23T22:21:14.046Z,37.28
2023-02-23T22:23:41.679Z,17.02
2023-02-23T22:26:09.135Z,21.73
2023-02-23T22:28:36.536Z,23.97
2023-02-23T22:31:04.671Z,22.98
2023-02-23T22:33:31.314Z,20.35
2023-02-23T22:36:01.641Z,22.67
2023-02-23T22:38:28.262Z,22.65
